Terminal Aerodrome Forecast
Issued by NWS

Home | Current Version | Previous Version | Text Only | Print | Product List | Glossary On
Versions: 1 2 3 4 5 6 7 8 9 10 11 12 13 14 15 16 17 18 19
000
FTUS43 KDMX 180520 AAB
TAFMCW
TAF AMD
KMCW 180520Z 1805/1824 22007KT 2SM BR BKN003
      TEMPO 1806/1810 1/2SM FG VV002
     FM181200 21008KT 4SM BR FEW007
     FM181500 20009KT P6SM FEW025 SCT150=

USA.gov is the U.S. government's official web portal to all federal, state and local government web resources and services.